sensor_id;sensor_type;location;lat;lon;timestamp;pressure;altitude;pressure_sealevel;temperature;humidity
6144;BME280;3103;49.492;8.474;2023-04-27T00:01:40;100677.47;;;10.08;52.44
6144;BME280;3103;49.492;8.474;2023-04-27T00:04:07;100670.97;;;10.16;52.12
6144;BME280;3103;49.492;8.474;2023-04-27T00:06:34;100671.41;;;10.12;51.96
6144;BME280;3103;49.492;8.474;2023-04-27T00:09:01;100675.53;;;10.15;51.67
6144;BME280;3103;49.492;8.474;2023-04-27T00:11:29;100672.88;;;9.97;52.02
6144;BME280;3103;49.492;8.474;2023-04-27T00:13:56;100668.34;;;9.97;51.91
6144;BME280;3103;49.492;8.474;2023-04-27T00:16:24;100671.78;;;9.74;54.04
6144;BME280;3103;49.492;8.474;2023-04-27T00:18:51;100663.75;;;9.44;57.78
6144;BME280;3103;49.492;8.474;2023-04-27T00:21:18;100674.88;;;9.60;56.99
6144;BME280;3103;49.492;8.474;2023-04-27T00:23:45;100673.56;;;9.50;56.87
6144;BME280;3103;49.492;8.474;2023-04-27T00:26:12;100662.19;;;9.37;56.74
6144;BME280;3103;49.492;8.474;2023-04-27T00:28:39;100653.66;;;9.58;55.52
6144;BME280;3103;49.492;8.474;2023-04-27T00:31:06;100659.97;;;9.64;54.76
6144;BME280;3103;49.492;8.474;2023-04-27T00:33:33;100650.19;;;9.69;54.35
6144;BME280;3103;49.492;8.474;2023-04-27T00:36:00;100657.78;;;9.72;54.68
6144;BME280;3103;49.492;8.474;2023-04-27T00:38:27;100651.22;;;9.68;55.42
6144;BME280;3103;49.492;8.474;2023-04-27T00:41:05;100663.50;;;9.28;57.87
6144;BME280;3103;49.492;8.474;2023-04-27T00:43:39;100658.03;;;9.22;58.85
6144;BME280;3103;49.492;8.474;2023-04-27T00:46:07;100659.88;;;9.22;58.89
6144;BME280;3103;49.492;8.474;2023-04-27T00:48:34;100656.75;;;9.43;57.96
6144;BME280;3103;49.492;8.474;2023-04-27T00:51:01;100656.47;;;9.63;56.50
6144;BME280;3103;49.492;8.474;2023-04-27T00:53:28;100660.44;;;9.61;56.11
6144;BME280;3103;49.492;8.474;2023-04-27T00:55:55;100659.50;;;9.67;55.44
6144;BME280;3103;49.492;8.474;2023-04-27T00:58:24;100654.28;;;9.72;54.81
6144;BME280;3103;49.492;8.474;2023-04-27T01:00:51;100661.94;;;9.68;54.67
6144;BME280;3103;49.492;8.474;2023-04-27T01:03:18;100660.56;;;9.66;55.28
6144;BME280;3103;49.492;8.474;2023-04-27T01:05:45;100671.00;;;9.56;55.61
6144;BME280;3103;49.492;8.474;2023-04-27T01:08:13;100675.53;;;9.55;55.93
6144;BME280;3103;49.492;8.474;2023-04-27T01:10:40;100682.78;;;9.55;56.41
6144;BME280;3103;49.492;8.474;2023-04-27T01:13:09;100670.63;;;9.52;56.47
6144;BME280;3103;49.492;8.474;2023-04-27T01:15:37;100665.81;;;9.42;56.71
6144;BME280;3103;49.492;8.474;2023-04-27T01:18:08;100671.16;;;9.42;57.16
6144;BME280;3103;49.492;8.474;2023-04-27T01:20:35;100676.09;;;9.45;56.90
6144;BME280;3103;49.492;8.474;2023-04-27T01:23:04;100668.00;;;9.34;57.48
6144;BME280;3103;49.492;8.474;2023-04-27T01:25:31;100673.44;;;9.45;57.05
6144;BME280;3103;49.492;8.474;2023-04-27T01:28:01;100662.53;;;9.40;57.28
6144;BME280;3103;49.492;8.474;2023-04-27T01:30:29;100669.94;;;9.45;56.91
6144;BME280;3103;49.492;8.474;2023-04-27T01:32:57;100671.63;;;9.39;57.65
6144;BME280;3103;49.492;8.474;2023-04-27T01:35:24;100672.22;;;9.41;57.79
6144;BME280;3103;49.492;8.474;2023-04-27T01:37:59;100668.06;;;9.27;57.88
6144;BME280;3103;49.492;8.474;2023-04-27T01:40:26;100662.53;;;9.40;57.25
6144;BME280;3103;49.492;8.474;2023-04-27T01:42:53;100658.69;;;9.36;57.61
6144;BME280;3103;49.492;8.474;2023-04-27T01:45:20;100666.44;;;9.44;57.76
6144;BME280;3103;49.492;8.474;2023-04-27T01:47:50;100669.28;;;9.31;59.86
6144;BME280;3103;49.492;8.474;2023-04-27T01:50:19;100667.34;;;9.20;63.39
6144;BME280;3103;49.492;8.474;2023-04-27T01:52:46;100663.66;;;9.14;65.73
6144;BME280;3103;49.492;8.474;2023-04-27T01:55:14;100661.06;;;9.26;65.96
6144;BME280;3103;49.492;8.474;2023-04-27T01:57:42;100662.66;;;9.15;67.28
6144;BME280;3103;49.492;8.474;2023-04-27T02:00:11;100661.16;;;9.19;67.59
6144;BME280;3103;49.492;8.474;2023-04-27T02:02:47;100663.19;;;9.06;68.05
6144;BME280;3103;49.492;8.474;2023-04-27T02:05:19;100674.56;;;9.01;67.50
6144;BME280;3103;49.492;8.474;2023-04-27T02:07:47;100677.84;;;9.03;66.38
6144;BME280;3103;49.492;8.474;2023-04-27T02:10:14;100673.09;;;8.87;65.17
6144;BME280;3103;49.492;8.474;2023-04-27T02:12:41;100676.94;;;8.91;64.59
6144;BME280;3103;49.492;8.474;2023-04-27T02:15:08;100686.13;;;9.02;63.53
6144;BME280;3103;49.492;8.474;2023-04-27T02:17:37;100669.13;;;9.08;62.46
6144;BME280;3103;49.492;8.474;2023-04-27T02:20:05;100669.34;;;9.06;62.06
6144;BME280;3103;49.492;8.474;2023-04-27T02:22:32;100669.41;;;9.00;61.83
6144;BME280;3103;49.492;8.474;2023-04-27T02:24:59;100676.22;;;9.02;61.85
6144;BME280;3103;49.492;8.474;2023-04-27T02:27:26;100678.25;;;9.00;61.20
6144;BME280;3103;49.492;8.474;2023-04-27T02:29:54;100681.56;;;9.02;60.85
6144;BME280;3103;49.492;8.474;2023-04-27T02:32:22;100683.03;;;8.98;61.64
6144;BME280;3103;49.492;8.474;2023-04-27T02:34:49;100687.22;;;9.12;61.44
6144;BME280;3103;49.492;8.474;2023-04-27T02:37:18;100681.63;;;9.14;61.95
6144;BME280;3103;49.492;8.474;2023-04-27T02:39:45;100687.28;;;9.06;62.23
6144;BME280;3103;49.492;8.474;2023-04-27T02:42:12;100684.53;;;9.12;61.35
6144;BME280;3103;49.492;8.474;2023-04-27T02:44:41;100689.47;;;9.15;60.17
6144;BME280;3103;49.492;8.474;2023-04-27T02:47:08;100691.59;;;9.25;59.50
6144;BME280;3103;49.492;8.474;2023-04-27T02:49:35;100693.91;;;9.21;59.60
6144;BME280;3103;49.492;8.474;2023-04-27T02:52:03;100688.47;;;9.28;60.30
6144;BME280;3103;49.492;8.474;2023-04-27T02:54:30;100687.50;;;9.22;60.54
6144;BME280;3103;49.492;8.474;2023-04-27T02:56:57;100689.44;;;9.34;60.19
6144;BME280;3103;49.492;8.474;2023-04-27T02:59:24;100686.75;;;9.34;59.65
6144;BME280;3103;49.492;8.474;2023-04-27T03:01:51;100697.13;;;9.12;59.54
6144;BME280;3103;49.492;8.474;2023-04-27T03:04:18;100698.31;;;9.16;59.35
6144;BME280;3103;49.492;8.474;2023-04-27T03:06:45;100694.44;;;8.93;59.21
6144;BME280;3103;49.492;8.474;2023-04-27T03:09:12;100691.38;;;9.08;58.99
6144;BME280;3103;49.492;8.474;2023-04-27T03:11:39;100690.28;;;9.16;59.01
6144;BME280;3103;49.492;8.474;2023-04-27T03:14:06;100691.31;;;9.15;60.63
6144;BME280;3103;49.492;8.474;2023-04-27T03:16:34;100689.75;;;9.26;59.96
6144;BME280;3103;49.492;8.474;2023-04-27T03:19:01;100688.78;;;9.02;61.55
6144;BME280;3103;49.492;8.474;2023-04-27T03:21:29;100693.59;;;8.75;62.85
6144;BME280;3103;49.492;8.474;2023-04-27T03:23:57;100692.72;;;8.56;63.55
6144;BME280;3103;49.492;8.474;2023-04-27T03:26:24;100697.69;;;8.77;63.87
6144;BME280;3103;49.492;8.474;2023-04-27T03:28:51;100687.44;;;8.92;63.23
6144;BME280;3103;49.492;8.474;2023-04-27T03:31:18;100695.47;;;8.74;64.03
6144;BME280;3103;49.492;8.474;2023-04-27T03:33:45;100701.88;;;8.91;63.14
6144;BME280;3103;49.492;8.474;2023-04-27T03:36:11;100690.03;;;8.99;62.96
6144;BME280;3103;49.492;8.474;2023-04-27T03:38:40;100690.25;;;8.79;63.81
6144;BME280;3103;49.492;8.474;2023-04-27T03:41:07;100692.34;;;8.96;62.96
6144;BME280;3103;49.492;8.474;2023-04-27T03:43:34;100687.34;;;8.81;63.14
6144;BME280;3103;49.492;8.474;2023-04-27T03:46:01;100688.72;;;8.90;62.80
6144;BME280;3103;49.492;8.474;2023-04-27T03:48:28;100694.34;;;8.82;62.44
6144;BME280;3103;49.492;8.474;2023-04-27T03:50:55;100687.94;;;8.83;62.73
6144;BME280;3103;49.492;8.474;2023-04-27T03:53:22;100690.34;;;8.91;62.16
6144;BME280;3103;49.492;8.474;2023-04-27T03:55:49;100689.06;;;8.75;62.71
6144;BME280;3103;49.492;8.474;2023-04-27T03:58:17;100691.53;;;8.77;61.86
6144;BME280;3103;49.492;8.474;2023-04-27T04:01:06;100686.50;;;8.62;62.57
6144;BME280;3103;49.492;8.474;2023-04-27T04:03:36;100684.06;;;8.60;62.61
6144;BME280;3103;49.492;8.474;2023-04-27T04:06:06;100694.66;;;8.74;61.84
6144;BME280;3103;49.492;8.474;2023-04-27T04:08:33;100685.72;;;8.55;62.28
6144;BME280;3103;49.492;8.474;2023-04-27T04:11:00;100684.53;;;8.51;62.59
6144;BME280;3103;49.492;8.474;2023-04-27T04:13:28;100689.56;;;8.41;62.47
6144;BME280;3103;49.492;8.474;2023-04-27T04:16:06;100690.97;;;8.68;61.24
6144;BME280;3103;49.492;8.474;2023-04-27T04:18:34;100687.69;;;8.66;61.49
6144;BME280;3103;49.492;8.474;2023-04-27T04:21:02;100685.09;;;8.59;62.00
6144;BME280;3103;49.492;8.474;2023-04-27T04:23:29;100693.88;;;8.67;62.64
6144;BME280;3103;49.492;8.474;2023-04-27T04:25:56;100694.66;;;8.49;62.15
6144;BME280;3103;49.492;8.474;2023-04-27T04:28:27;100693.28;;;8.40;62.88
6144;BME280;3103;49.492;8.474;2023-04-27T04:30:54;100701.09;;;8.66;61.90
6144;BME280;3103;49.492;8.474;2023-04-27T04:33:22;100700.75;;;8.31;62.43
6144;BME280;3103;49.492;8.474;2023-04-27T04:35:49;100713.09;;;8.57;62.15
6144;BME280;3103;49.492;8.474;2023-04-27T04:38:17;100712.13;;;8.76;61.14
6144;BME280;3103;49.492;8.474;2023-04-27T04:40:44;100717.41;;;8.83;60.93
6144;BME280;3103;49.492;8.474;2023-04-27T04:43:11;100718.13;;;8.72;61.85
6144;BME280;3103;49.492;8.474;2023-04-27T04:45:38;100716.00;;;8.80;61.47
6144;BME280;3103;49.492;8.474;2023-04-27T04:48:05;100711.53;;;8.74;61.60
6144;BME280;3103;49.492;8.474;2023-04-27T04:50:33;100715.16;;;8.61;62.81
6144;BME280;3103;49.492;8.474;2023-04-27T04:53:00;100708.19;;;8.79;62.31
6144;BME280;3103;49.492;8.474;2023-04-27T04:55:28;100708.88;;;8.92;62.15
6144;BME280;3103;49.492;8.474;2023-04-27T04:57:54;100708.72;;;8.87;63.03
6144;BME280;3103;49.492;8.474;2023-04-27T05:00:21;100708.06;;;8.92;62.17
6144;BME280;3103;49.492;8.474;2023-04-27T05:02:48;100708.09;;;8.85;63.23
6144;BME280;3103;49.492;8.474;2023-04-27T05:05:15;100708.50;;;8.89;63.80
6144;BME280;3103;49.492;8.474;2023-04-27T05:07:42;100709.44;;;8.76;63.82
6144;BME280;3103;49.492;8.474;2023-04-27T05:10:09;100708.28;;;8.90;63.73
6144;BME280;3103;49.492;8.474;2023-04-27T05:12:36;100710.16;;;8.90;64.42
6144;BME280;3103;49.492;8.474;2023-04-27T05:15:03;100705.00;;;9.07;64.08
6144;BME280;3103;49.492;8.474;2023-04-27T05:17:32;100704.47;;;8.98;63.56
6144;BME280;3103;49.492;8.474;2023-04-27T05:19:59;100714.38;;;8.98;62.96
6144;BME280;3103;49.492;8.474;2023-04-27T05:22:26;100713.63;;;8.90;63.20
6144;BME280;3103;49.492;8.474;2023-04-27T05:24:53;100716.31;;;9.09;62.04
6144;BME280;3103;49.492;8.474;2023-04-27T05:27:19;100728.09;;;9.08;61.95
6144;BME280;3103;49.492;8.474;2023-04-27T05:29:46;100715.66;;;9.13;61.96
6144;BME280;3103;49.492;8.474;2023-04-27T05:32:13;100727.03;;;9.27;61.88
6144;BME280;3103;49.492;8.474;2023-04-27T05:34:39;100732.84;;;9.24;61.66
6144;BME280;3103;49.492;8.474;2023-04-27T05:37:06;100732.31;;;8.97;61.09
6144;BME280;3103;49.492;8.474;2023-04-27T05:39:33;100733.09;;;9.22;60.21
6144;BME280;3103;49.492;8.474;2023-04-27T05:42:00;100732.56;;;9.14;60.91
6144;BME280;3103;49.492;8.474;2023-04-27T05:44:28;100739.84;;;9.07;60.83
6144;BME280;3103;49.492;8.474;2023-04-27T05:46:55;100732.34;;;9.15;60.94
6144;BME280;3103;49.492;8.474;2023-04-27T05:49:22;100730.34;;;9.29;60.10
6144;BME280;3103;49.492;8.474;2023-04-27T05:51:49;100731.97;;;9.30;60.48
6144;BME280;3103;49.492;8.474;2023-04-27T05:54:15;100740.16;;;9.35;60.27
6144;BME280;3103;49.492;8.474;2023-04-27T05:56:42;100736.13;;;9.26;61.12
6144;BME280;3103;49.492;8.474;2023-04-27T05:59:09;100741.66;;;9.31;61.61
6144;BME280;3103;49.492;8.474;2023-04-27T06:01:36;100747.16;;;9.18;61.86
6144;BME280;3103;49.492;8.474;2023-04-27T06:04:03;100745.75;;;9.34;61.44
6144;BME280;3103;49.492;8.474;2023-04-27T06:06:30;100747.84;;;9.32;61.61
6144;BME280;3103;49.492;8.474;2023-04-27T06:08:58;100754.63;;;9.34;61.32
6144;BME280;3103;49.492;8.474;2023-04-27T06:11:25;100748.94;;;9.42;61.37
6144;BME280;3103;49.492;8.474;2023-04-27T06:13:52;100757.00;;;9.61;60.22
6144;BME280;3103;49.492;8.474;2023-04-27T06:16:19;100754.78;;;9.58;60.93
6144;BME280;3103;49.492;8.474;2023-04-27T06:18:48;100759.25;;;9.45;62.00
6144;BME280;3103;49.492;8.474;2023-04-27T06:21:15;100767.50;;;9.62;61.93
6144;BME280;3103;49.492;8.474;2023-04-27T06:23:42;100772.91;;;9.92;61.39
6144;BME280;3103;49.492;8.474;2023-04-27T06:26:08;100772.38;;;9.83;61.00
6144;BME280;3103;49.492;8.474;2023-04-27T06:28:35;100779.91;;;9.93;60.79
6144;BME280;3103;49.492;8.474;2023-04-27T06:31:02;100785.41;;;9.98;60.57
6144;BME280;3103;49.492;8.474;2023-04-27T06:33:29;100781.81;;;9.74;61.31
6144;BME280;3103;49.492;8.474;2023-04-27T06:35:55;100787.66;;;10.01;60.71
6144;BME280;3103;49.492;8.474;2023-04-27T06:38:22;100787.31;;;10.09;61.23
6144;BME280;3103;49.492;8.474;2023-04-27T06:40:50;100790.75;;;10.17;60.09
6144;BME280;3103;49.492;8.474;2023-04-27T06:43:17;100786.56;;;10.21;60.44
6144;BME280;3103;49.492;8.474;2023-04-27T06:45:44;100787.88;;;10.00;60.77
6144;BME280;3103;49.492;8.474;2023-04-27T06:48:11;100792.16;;;9.89;60.90
6144;BME280;3103;49.492;8.474;2023-04-27T06:50:38;100792.78;;;10.03;60.44
6144;BME280;3103;49.492;8.474;2023-04-27T06:53:05;100789.41;;;10.07;60.15
6144;BME280;3103;49.492;8.474;2023-04-27T06:55:32;100796.75;;;10.00;60.86
6144;BME280;3103;49.492;8.474;2023-04-27T06:57:58;100793.41;;;10.35;59.57
6144;BME280;3103;49.492;8.474;2023-04-27T07:00:25;100800.59;;;10.23;60.06
6144;BME280;3103;49.492;8.474;2023-04-27T07:02:52;100797.44;;;10.26;59.29
6144;BME280;3103;49.492;8.474;2023-04-27T07:05:19;100797.41;;;10.44;58.65
6144;BME280;3103;49.492;8.474;2023-04-27T07:07:46;100798.13;;;10.51;58.15
6144;BME280;3103;49.492;8.474;2023-04-27T07:10:13;100800.59;;;10.64;57.20
6144;BME280;3103;49.492;8.474;2023-04-27T07:12:40;100802.59;;;10.81;58.02
6144;BME280;3103;49.492;8.474;2023-04-27T07:15:08;100804.03;;;10.95;57.74
6144;BME280;3103;49.492;8.474;2023-04-27T07:17:35;100807.88;;;11.11;57.56
6144;BME280;3103;49.492;8.474;2023-04-27T07:20:03;100808.69;;;11.11;57.21
6144;BME280;3103;49.492;8.474;2023-04-27T07:22:32;100802.41;;;11.06;57.19
6144;BME280;3103;49.492;8.474;2023-04-27T07:24:59;100802.06;;;11.02;56.60
6144;BME280;3103;49.492;8.474;2023-04-27T07:27:26;100805.81;;;11.13;57.63
6144;BME280;3103;49.492;8.474;2023-04-27T07:29:52;100807.06;;;11.22;56.42
6144;BME280;3103;49.492;8.474;2023-04-27T07:32:20;100807.31;;;11.44;54.87
6144;BME280;3103;49.492;8.474;2023-04-27T07:34:48;100808.53;;;11.65;52.99
6144;BME280;3103;49.492;8.474;2023-04-27T07:37:20;100807.88;;;11.57;51.64
6144;BME280;3103;49.492;8.474;2023-04-27T07:39:49;100809.53;;;11.35;52.14
6144;BME280;3103;49.492;8.474;2023-04-27T07:42:16;100801.66;;;11.57;50.74
6144;BME280;3103;49.492;8.474;2023-04-27T07:44:43;100798.09;;;11.92;50.57
6144;BME280;3103;49.492;8.474;2023-04-27T07:47:10;100795.84;;;12.00;49.42
6144;BME280;3103;49.492;8.474;2023-04-27T07:49:38;100802.13;;;12.34;47.98
6144;BME280;3103;49.492;8.474;2023-04-27T07:52:05;100801.13;;;12.86;46.39
6144;BME280;3103;49.492;8.474;2023-04-27T07:54:33;100791.53;;;12.78;45.91
6144;BME280;3103;49.492;8.474;2023-04-27T07:57:00;100790.50;;;12.96;46.01
6144;BME280;3103;49.492;8.474;2023-04-27T07:59:28;100781.75;;;12.89;45.57
6144;BME280;3103;49.492;8.474;2023-04-27T08:01:55;100786.88;;;12.90;45.73
6144;BME280;3103;49.492;8.474;2023-04-27T08:04:41;100781.34;;;13.52;44.93
6144;BME280;3103;49.492;8.474;2023-04-27T08:07:09;100787.94;;;13.61;43.65
6144;BME280;3103;49.492;8.474;2023-04-27T08:09:36;100783.47;;;13.50;44.22
6144;BME280;3103;49.492;8.474;2023-04-27T08:12:03;100788.81;;;13.67;43.87
6144;BME280;3103;49.492;8.474;2023-04-27T08:14:33;100786.25;;;13.55;43.65
6144;BME280;3103;49.492;8.474;2023-04-27T08:16:59;100785.97;;;13.79;42.65
6144;BME280;3103;49.492;8.474;2023-04-27T08:19:26;100779.53;;;13.80;42.32
6144;BME280;3103;49.492;8.474;2023-04-27T08:21:53;100782.09;;;13.70;42.48
6144;BME280;3103;49.492;8.474;2023-04-27T08:24:20;100779.97;;;13.72;42.75
6144;BME280;3103;49.492;8.474;2023-04-27T08:26:46;100776.41;;;13.66;42.94
6144;BME280;3103;49.492;8.474;2023-04-27T08:29:13;100778.13;;;13.99;42.34
6144;BME280;3103;49.492;8.474;2023-04-27T08:31:52;100782.16;;;14.23;41.44
6144;BME280;3103;49.492;8.474;2023-04-27T08:34:22;100779.34;;;14.40;40.15
6144;BME280;3103;49.492;8.474;2023-04-27T08:36:48;100783.28;;;14.87;38.58
6144;BME280;3103;49.492;8.474;2023-04-27T08:39:15;100774.69;;;15.42;37.07
6144;BME280;3103;49.492;8.474;2023-04-27T08:41:43;100777.88;;;15.34;37.32
6144;BME280;3103;49.492;8.474;2023-04-27T08:44:10;100784.56;;;15.16;36.84
6144;BME280;3103;49.492;8.474;2023-04-27T08:46:37;100781.53;;;15.07;37.52
6144;BME280;3103;49.492;8.474;2023-04-27T08:49:05;100782.84;;;15.05;36.87
6144;BME280;3103;49.492;8.474;2023-04-27T08:51:33;100784.22;;;14.70;36.93
6144;BME280;3103;49.492;8.474;2023-04-27T08:54:00;100779.06;;;14.37;37.58
6144;BME280;3103;49.492;8.474;2023-04-27T08:56:28;100775.19;;;14.06;38.11
6144;BME280;3103;49.492;8.474;2023-04-27T08:58:56;100778.44;;;14.30;37.85
6144;BME280;3103;49.492;8.474;2023-04-27T09:01:24;100773.66;;;14.37;38.02
6144;BME280;3103;49.492;8.474;2023-04-27T09:03:59;100780.84;;;14.26;37.61
6144;BME280;3103;49.492;8.474;2023-04-27T09:06:34;100774.19;;;14.39;37.49
6144;BME280;3103;49.492;8.474;2023-04-27T09:09:02;100776.28;;;14.32;38.16
6144;BME280;3103;49.492;8.474;2023-04-27T09:11:34;100787.34;;;14.89;37.13
6144;BME280;3103;49.492;8.474;2023-04-27T09:14:13;100777.03;;;14.81;37.05
6144;BME280;3103;49.492;8.474;2023-04-27T09:16:41;100785.50;;;14.95;36.19
6144;BME280;3103;49.492;8.474;2023-04-27T09:19:08;100786.19;;;15.17;36.29
6144;BME280;3103;49.492;8.474;2023-04-27T09:21:35;100780.19;;;15.10;35.47
6144;BME280;3103;49.492;8.474;2023-04-27T09:24:09;100767.56;;;14.83;35.80
6144;BME280;3103;49.492;8.474;2023-04-27T09:26:38;100770.66;;;15.02;35.28
6144;BME280;3103;49.492;8.474;2023-04-27T09:29:06;100774.59;;;15.22;35.38
6144;BME280;3103;49.492;8.474;2023-04-27T09:31:34;100767.50;;;15.15;35.27
6144;BME280;3103;49.492;8.474;2023-04-27T09:34:02;100761.63;;;15.24;35.19
6144;BME280;3103;49.492;8.474;2023-04-27T09:36:30;100753.03;;;15.37;34.95
6144;BME280;3103;49.492;8.474;2023-04-27T09:39:01;100750.81;;;15.29;35.01
6144;BME280;3103;49.492;8.474;2023-04-27T09:41:31;100756.13;;;15.61;34.66
6144;BME280;3103;49.492;8.474;2023-04-27T09:43:58;100753.72;;;15.17;35.19
6144;BME280;3103;49.492;8.474;2023-04-27T09:46:27;100749.50;;;15.41;35.65
6144;BME280;3103;49.492;8.474;2023-04-27T09:48:55;100753.16;;;15.10;36.17
6144;BME280;3103;49.492;8.474;2023-04-27T09:51:22;100747.63;;;15.42;35.29
6144;BME280;3103;49.492;8.474;2023-04-27T09:53:51;100752.00;;;15.06;35.87
6144;BME280;3103;49.492;8.474;2023-04-27T09:56:59;100751.59;;;15.77;35.47
6144;BME280;3103;49.492;8.474;2023-04-27T09:59:42;100738.13;;;15.34;35.33
6144;BME280;3103;49.492;8.474;2023-04-27T10:02:15;100730.44;;;15.63;35.19
6144;BME280;3103;49.492;8.474;2023-04-27T10:07:52;100735.66;;;15.33;36.45
6144;BME280;3103;49.492;8.474;2023-04-27T10:10:19;100734.22;;;15.67;35.98
6144;BME280;3103;49.492;8.474;2023-04-27T10:13:01;100736.13;;;15.67;35.60
6144;BME280;3103;49.492;8.474;2023-04-27T10:15:28;100733.06;;;15.58;35.54
6144;BME280;3103;49.492;8.474;2023-04-27T10:18:03;100734.03;;;15.32;36.23
6144;BME280;3103;49.492;8.474;2023-04-27T10:20:32;100734.00;;;15.22;36.65
6144;BME280;3103;49.492;8.474;2023-04-27T10:22:59;100728.81;;;15.67;36.40
6144;BME280;3103;49.492;8.474;2023-04-27T10:25:45;100730.44;;;15.68;36.30
6144;BME280;3103;49.492;8.474;2023-04-27T10:28:16;100735.09;;;15.88;35.73
6144;BME280;3103;49.492;8.474;2023-04-27T10:30:47;100732.09;;;15.85;35.32
6144;BME280;3103;49.492;8.474;2023-04-27T10:33:18;100732.66;;;15.87;35.31
6144;BME280;3103;49.492;8.474;2023-04-27T10:35:57;100736.25;;;16.28;34.51
6144;BME280;3103;49.492;8.474;2023-04-27T10:38:29;100728.44;;;15.49;34.77
6144;BME280;3103;49.492;8.474;2023-04-27T10:41:00;100724.06;;;15.37;35.54
6144;BME280;3103;49.492;8.474;2023-04-27T10:43:30;100729.50;;;15.48;35.63
6144;BME280;3103;49.492;8.474;2023-04-27T10:46:08;100725.94;;;16.10;34.86
6144;BME280;3103;49.492;8.474;2023-04-27T10:48:38;100722.69;;;16.43;34.83
6144;BME280;3103;49.492;8.474;2023-04-27T10:51:05;100722.66;;;15.92;34.47
6144;BME280;3103;49.492;8.474;2023-04-27T10:53:36;100715.53;;;15.66;34.53
6144;BME280;3103;49.492;8.474;2023-04-27T10:56:04;100712.81;;;15.66;33.69
6144;BME280;3103;49.492;8.474;2023-04-27T10:58:33;100712.84;;;15.81;33.77
6144;BME280;3103;49.492;8.474;2023-04-27T11:01:07;100703.84;;;15.60;33.77
6144;BME280;3103;49.492;8.474;2023-04-27T11:03:34;100708.97;;;15.57;33.91
6144;BME280;3103;49.492;8.474;2023-04-27T11:06:03;100712.06;;;16.01;33.97
6144;BME280;3103;49.492;8.474;2023-04-27T11:08:31;100710.13;;;15.66;33.43
6144;BME280;3103;49.492;8.474;2023-04-27T11:11:02;100711.00;;;16.12;32.73
6144;BME280;3103;49.492;8.474;2023-04-27T11:13:30;100709.88;;;15.83;32.53
6144;BME280;3103;49.492;8.474;2023-04-27T11:15:59;100699.84;;;15.88;32.99
6144;BME280;3103;49.492;8.474;2023-04-27T11:18:29;100700.69;;;15.99;33.32
6144;BME280;3103;49.492;8.474;2023-04-27T11:21:14;100696.13;;;16.10;32.26
6144;BME280;3103;49.492;8.474;2023-04-27T11:23:41;100705.06;;;16.36;32.69
6144;BME280;3103;49.492;8.474;2023-04-27T11:26:17;100693.88;;;15.76;33.62
6144;BME280;3103;49.492;8.474;2023-04-27T11:29:05;100695.56;;;16.13;33.93
6144;BME280;3103;49.492;8.474;2023-04-27T11:31:46;100693.13;;;16.31;33.08
6144;BME280;3103;49.492;8.474;2023-04-27T11:34:22;100698.53;;;16.16;33.26
6144;BME280;3103;49.492;8.474;2023-04-27T11:37:25;100692.50;;;15.63;34.06
6144;BME280;3103;49.492;8.474;2023-04-27T11:39:53;100680.91;;;16.03;33.86
6144;BME280;3103;49.492;8.474;2023-04-27T11:42:25;100677.13;;;15.99;33.73
6144;BME280;3103;49.492;8.474;2023-04-27T11:44:58;100682.81;;;16.18;32.83
6144;BME280;3103;49.492;8.474;2023-04-27T11:47:27;100682.56;;;16.20;32.77
6144;BME280;3103;49.492;8.474;2023-04-27T11:49:59;100676.84;;;16.31;32.86
6144;BME280;3103;49.492;8.474;2023-04-27T11:52:33;100680.66;;;16.51;33.11
6144;BME280;3103;49.492;8.474;2023-04-27T11:55:01;100671.19;;;16.48;33.06
6144;BME280;3103;49.492;8.474;2023-04-27T11:57:34;100673.59;;;16.65;33.21
6144;BME280;3103;49.492;8.474;2023-04-27T12:00:04;100665.72;;;16.58;33.51
6144;BME280;3103;49.492;8.474;2023-04-27T12:02:42;100656.25;;;16.61;33.91
6144;BME280;3103;49.492;8.474;2023-04-27T12:05:10;100660.03;;;16.60;33.99
6144;BME280;3103;49.492;8.474;2023-04-27T12:07:39;100659.22;;;16.59;33.86
6144;BME280;3103;49.492;8.474;2023-04-27T12:10:06;100648.94;;;16.41;33.69
6144;BME280;3103;49.492;8.474;2023-04-27T12:12:34;100640.50;;;16.58;33.40
6144;BME280;3103;49.492;8.474;2023-04-27T12:15:01;100645.94;;;16.78;33.60
6144;BME280;3103;49.492;8.474;2023-04-27T12:17:32;100642.94;;;16.80;34.10
6144;BME280;3103;49.492;8.474;2023-04-27T12:19:59;100638.59;;;16.74;33.63
6144;BME280;3103;49.492;8.474;2023-04-27T12:22:31;100640.78;;;16.56;33.79
6144;BME280;3103;49.492;8.474;2023-04-27T12:24:58;100646.22;;;16.77;33.95
6144;BME280;3103;49.492;8.474;2023-04-27T12:27:25;100636.97;;;16.62;33.13
6144;BME280;3103;49.492;8.474;2023-04-27T12:29:52;100630.16;;;16.85;33.63
6144;BME280;3103;49.492;8.474;2023-04-27T12:32:25;100618.81;;;16.68;33.39
6144;BME280;3103;49.492;8.474;2023-04-27T12:34:53;100627.22;;;16.61;33.20
6144;BME280;3103;49.492;8.474;2023-04-27T12:37:19;100630.69;;;16.92;32.93
6144;BME280;3103;49.492;8.474;2023-04-27T12:39:47;100622.88;;;16.76;33.69
6144;BME280;3103;49.492;8.474;2023-04-27T12:42:14;100628.03;;;16.72;32.61
6144;BME280;3103;49.492;8.474;2023-04-27T12:44:40;100628.25;;;16.86;33.00
6144;BME280;3103;49.492;8.474;2023-04-27T12:47:07;100627.13;;;16.97;32.78
6144;BME280;3103;49.492;8.474;2023-04-27T12:49:34;100624.16;;;16.94;32.51
6144;BME280;3103;49.492;8.474;2023-04-27T12:52:01;100624.66;;;17.06;31.87
6144;BME280;3103;49.492;8.474;2023-04-27T12:54:28;100627.91;;;17.03;32.57
6144;BME280;3103;49.492;8.474;2023-04-27T12:56:55;100624.44;;;16.87;32.39
6144;BME280;3103;49.492;8.474;2023-04-27T12:59:22;100629.59;;;16.94;32.32
6144;BME280;3103;49.492;8.474;2023-04-27T13:01:49;100616.75;;;17.14;32.89
6144;BME280;3103;49.492;8.474;2023-04-27T13:04:18;100613.41;;;17.28;32.81
6144;BME280;3103;49.492;8.474;2023-04-27T13:06:47;100618.41;;;17.10;32.57
6144;BME280;3103;49.492;8.474;2023-04-27T13:09:14;100619.63;;;17.38;33.28
6144;BME280;3103;49.492;8.474;2023-04-27T13:11:42;100611.75;;;17.37;32.43
6144;BME280;3103;49.492;8.474;2023-04-27T13:14:09;100604.78;;;17.15;32.60
6144;BME280;3103;49.492;8.474;2023-04-27T13:16:39;100604.34;;;17.03;32.49
6144;BME280;3103;49.492;8.474;2023-04-27T13:19:05;100607.50;;;17.15;32.14
6144;BME280;3103;49.492;8.474;2023-04-27T13:21:32;100610.66;;;17.38;32.56
6144;BME280;3103;49.492;8.474;2023-04-27T13:23:59;100597.13;;;17.28;33.98
6144;BME280;3103;49.492;8.474;2023-04-27T13:26:26;100604.84;;;17.60;33.14
6144;BME280;3103;49.492;8.474;2023-04-27T13:28:53;100602.50;;;17.38;32.42